Time;durP1;ratioP1;P1;durP2;ratioP2;P2;SDS_P1;SDS_P2;PMS_P1;PMS_P2;Temp;Humidity;BMP_temperature;BMP_pressure;BME280_temperature;BME280_humidity;BME280_pressure;Samples;Min_cycle;Max_cycle;Signal;HPM_P1;HPM_P2
2022/12/28 00:01:16;;;;;;;7.03;2.97;;;;;;;7.03;89.93;101698.31;5070420;28;20040;-54
2022/12/28 00:03:42;;;;;;;7.10;2.90;;;;;;;7.02;89.98;101694.00;5069489;28;20040;-52
2022/12/28 00:06:08;;;;;;;7.78;2.60;;;;;;;7.00;90.04;101685.38;5065737;28;20512;-53
2022/12/28 00:08:34;;;;;;;12.52;3.13;;;;;;;7.01;90.00;101673.47;5078538;28;20032;-51
2022/12/28 00:11:02;;;;;;;9.60;3.22;;;;;;;6.99;89.92;101658.91;5070590;28;20374;-52
2022/12/28 00:13:29;;;;;;;7.28;2.60;;;;;;;7.03;90.41;101661.63;5072147;28;20081;-53
2022/12/28 00:15:55;;;;;;;6.65;2.58;;;;;;;7.04;90.42;101645.47;5069738;28;20033;-53
2022/12/28 00:18:20;;;;;;;6.65;2.67;;;;;;;7.04;90.20;101637.81;5070864;28;20047;-53
2022/12/28 00:20:58;;;;;;;5.88;2.65;;;;;;;7.08;90.44;101635.50;5066120;28;20091;-53
2022/12/28 00:23:24;;;;;;;8.98;3.10;;;;;;;7.07;89.96;101625.22;5069420;28;20051;-48
2022/12/28 00:25:49;;;;;;;11.90;3.22;;;;;;;7.06;89.88;101623.47;5068174;28;20033;-54
2022/12/28 00:28:15;;;;;;;7.43;2.78;;;;;;;7.06;89.75;101609.00;5072975;28;20020;-53
2022/12/28 00:30:40;;;;;;;8.82;3.00;;;;;;;7.07;89.64;101612.41;5065245;28;20138;-54
2022/12/28 00:33:05;;;;;;;5.55;2.78;;;;;;;7.04;89.65;101610.59;5067817;28;20093;-50
2022/12/28 00:35:31;;;;;;;6.53;3.10;;;;;;;7.05;89.93;101611.47;5065534;28;20108;-53
2022/12/28 00:37:56;;;;;;;6.47;2.92;;;;;;;7.06;89.79;101603.00;5064891;28;20039;-54
2022/12/28 00:40:21;;;;;;;6.80;2.88;;;;;;;7.07;89.72;101597.06;5061861;28;20036;-54
2022/12/28 00:42:47;;;;;;;7.18;2.97;;;;;;;7.06;89.81;101597.88;5069411;28;20101;-54
2022/12/28 00:45:12;;;;;;;6.65;3.40;;;;;;;7.09;89.86;101593.78;5064635;28;20474;-53
2022/12/28 00:47:37;;;;;;;9.82;2.92;;;;;;;7.07;90.02;101595.41;5064304;28;20031;-50
2022/12/28 00:50:03;;;;;;;7.43;2.95;;;;;;;7.10;89.85;101577.69;5065625;28;20040;-51
2022/12/28 00:52:28;;;;;;;11.98;3.40;;;;;;;7.09;89.95;101580.13;5064702;28;20032;-54
2022/12/28 00:54:54;;;;;;;6.07;2.78;;;;;;;7.09;90.34;101570.78;5059143;28;20397;-54
2022/12/28 00:57:19;;;;;;;8.18;3.45;;;;;;;7.11;90.12;101561.53;5059216;28;20049;-53
2022/12/28 00:59:45;;;;;;;9.30;2.97;;;;;;;7.13;90.19;101559.91;5070767;28;20036;-53
2022/12/28 01:02:10;;;;;;;7.68;3.15;;;;;;;7.13;90.17;101562.47;5061142;28;20043;-51
2022/12/28 01:04:35;;;;;;;8.82;2.80;;;;;;;7.15;90.13;101565.09;5061723;28;20504;-54
2022/12/28 01:07:01;;;;;;;7.85;3.45;;;;;;;7.15;90.21;101554.88;5074900;28;20498;-54
2022/12/28 01:09:26;;;;;;;6.35;3.10;;;;;;;7.17;90.11;101553.31;5064796;28;20025;-53
2022/12/28 01:11:51;;;;;;;8.52;3.08;;;;;;;7.15;90.41;101554.88;5070548;28;21894;-54
2022/12/28 01:14:17;;;;;;;6.45;2.90;;;;;;;7.16;90.49;101544.75;5071910;28;20024;-54
2022/12/28 01:16:42;;;;;;;9.95;3.33;;;;;;;7.14;90.84;101548.88;5075661;28;20032;-46
2022/12/28 01:19:14;;;;;;;5.45;2.80;;;;;;;7.19;90.82;101536.34;5074473;28;20111;-53
2022/12/28 01:21:39;;;;;;;4.90;2.85;;;;;;;7.16;90.64;101528.50;5073985;28;20024;-51
2022/12/28 01:24:07;;;;;;;6.53;3.10;;;;;;;7.18;90.49;101521.81;5068261;28;20078;-48
2022/12/28 01:26:33;;;;;;;7.00;3.47;;;;;;;7.20;90.66;101525.31;5069007;28;20473;-51
2022/12/28 01:28:59;;;;;;;5.20;3.00;;;;;;;7.19;90.41;101514.22;5074705;28;20030;-54
2022/12/28 01:31:24;;;;;;;8.35;2.72;;;;;;;7.21;90.42;101522.81;5070326;28;20037;-46
2022/12/28 01:33:50;;;;;;;6.65;3.10;;;;;;;7.20;90.48;101505.72;5070556;28;20028;-54
2022/12/28 01:36:18;;;;;;;9.95;3.00;;;;;;;7.24;90.35;101504.22;5074396;28;20165;-54
2022/12/28 01:38:45;;;;;;;7.63;3.10;;;;;;;7.24;90.44;101504.22;5068778;28;20489;-51
2022/12/28 01:41:14;;;;;;;7.28;2.80;;;;;;;7.27;90.42;101506.91;5073122;28;20494;-53
2022/12/28 01:43:41;;;;;;;6.85;3.05;;;;;;;7.29;90.24;101496.78;5074154;28;20066;-54
2022/12/28 01:46:10;;;;;;;9.45;2.92;;;;;;;7.29;90.11;101495.09;5072375;28;20043;-54
2022/12/28 01:48:43;;;;;;;6.15;2.78;;;;;;;7.30;90.22;101480.63;5075946;28;20544;-54
2022/12/28 01:51:09;;;;;;;6.78;3.13;;;;;;;7.32;90.28;101486.69;5071914;28;20035;-54
2022/12/28 01:53:34;;;;;;;7.18;3.00;;;;;;;7.34;90.17;101477.41;5069684;28;20032;-50
2022/12/28 01:55:59;;;;;;;5.47;2.80;;;;;;;7.34;90.18;101475.75;5069676;28;20072;-45
2022/12/28 01:58:30;;;;;;;7.70;2.70;;;;;;;7.33;90.22;101471.41;5070221;28;20025;-54
2022/12/28 02:00:56;;;;;;;9.05;3.05;;;;;;;7.34;90.17;101468.09;5071585;28;20506;-54
2022/12/28 02:03:25;;;;;;;4.93;2.83;;;;;;;7.38;90.51;101461.44;5076031;28;20032;-46
2022/12/28 02:05:54;;;;;;;7.72;2.80;;;;;;;7.37;90.51;101447.75;5070192;28;20031;-53
2022/12/28 02:08:28;;;;;;;7.07;3.30;;;;;;;7.42;90.49;101448.00;5072268;28;20051;-54
2022/12/28 02:10:55;;;;;;;4.47;2.83;;;;;;;7.41;90.38;101441.13;5070646;28;20040;-54
2022/12/28 02:13:22;;;;;;;7.15;3.00;;;;;;;7.42;90.56;101433.53;5073276;28;20565;-54
2022/12/28 02:15:48;;;;;;;5.93;2.78;;;;;;;7.42;90.88;101423.28;5070281;28;20044;-54
2022/12/28 02:18:15;;;;;;;5.65;2.90;;;;;;;7.44;91.13;101426.78;5068205;28;20438;-54
2022/12/28 02:20:47;;;;;;;11.68;3.13;;;;;;;7.44;91.65;101408.88;5072144;28;20041;-51
2022/12/28 02:23:37;;;;;;;4.90;2.67;;;;;;;7.48;92.42;101402.25;5059981;28;20044;-54
2022/12/28 02:26:14;;;;;;;8.63;3.05;;;;;;;7.45;92.68;101407.19;5067070;28;20515;-54
2022/12/28 02:28:54;;;;;;;6.32;2.97;;;;;;;7.47;92.60;101392.81;5069717;28;20487;-54
2022/12/28 02:31:28;;;;;;;8.55;2.85;;;;;;;7.46;92.81;101396.16;5064859;28;20597;-54
2022/12/28 02:34:06;;;;;;;5.57;2.75;;;;;;;7.48;92.81;101392.00;5071674;28;20103;-54
2022/12/28 02:36:44;;;;;;;3.97;2.50;;;;;;;7.48;93.26;101382.66;5074473;28;20025;-54
2022/12/28 02:39:24;;;;;;;6.18;2.83;;;;;;;7.49;93.40;101389.50;5072636;28;20473;-54
2022/12/28 02:41:51;;;;;;;6.85;3.03;;;;;;;7.47;94.01;101390.25;5075991;28;20028;-54
2022/12/28 02:50:04;;;;;;;5.03;3.40;;;;;;;7.47;94.22;101390.25;5072076;28;20036;-54
2022/12/28 02:50:05;;;;;;;6.15;3.20;;;;;;;7.47;95.58;101380.91;5075144;28;20047;-54
2022/12/28 02:53:10;;;;;;;5.45;3.05;;;;;;;7.52;95.42;101379.44;5069866;28;20036;-54
2022/12/28 02:58:53;;;;;;;9.30;3.55;;;;;;;7.50;96.85;101360.56;5064102;28;20043;-54
2022/12/28 03:01:24;;;;;;;5.82;3.13;;;;;;;7.47;97.63;101360.41;5070259;28;20028;-54
2022/12/28 03:04:03;;;;;;;5.43;3.35;;;;;;;7.46;98.46;101356.13;5078990;28;20872;-54
2022/12/28 03:09:38;;;;;;;5.10;3.30;;;;;;;7.50;98.77;101357.13;5075138;28;20040;-54
2022/12/28 03:12:25;;;;;;;4.55;2.97;;;;;;;7.53;98.87;101341.94;5077684;28;20028;-52
2022/12/28 03:15:24;;;;;;;7.07;3.47;;;;;;;7.51;99.29;101341.84;5074263;28;20031;-54
2022/12/28 03:31:39;;;;;;;5.95;3.40;;;;;;;7.50;100.00;101328.97;5073816;28;20043;-54
2022/12/28 03:34:06;;;;;;;6.13;3.28;;;;;;;7.48;100.00;101333.16;5074085;28;20054;-51
2022/12/28 03:36:57;;;;;;;6.03;3.47;;;;;;;7.54;100.00;101330.88;5067903;28;20025;-53
2022/12/28 03:39:35;;;;;;;6.00;3.70;;;;;;;7.53;100.00;101326.56;5064546;28;20117;-54
2022/12/28 03:45:00;;;;;;;4.25;3.30;;;;;;;7.53;100.00;101322.34;5066911;28;20092;-53
2022/12/28 03:47:28;;;;;;;6.88;3.40;;;;;;;7.55;100.00;101312.16;5068975;28;20504;-54
2022/12/28 03:49:54;;;;;;;6.28;3.65;;;;;;;7.53;100.00;101303.53;5071125;28;20024;-51
2022/12/28 03:52:20;;;;;;;5.22;3.20;;;;;;;7.56;100.00;101313.03;5067097;28;20077;-51
2022/12/28 03:54:45;;;;;;;5.50;3.50;;;;;;;7.59;100.00;101305.53;5076364;28;20024;-54
2022/12/28 03:57:11;;;;;;;5.80;3.67;;;;;;;7.56;100.00;101303.66;5065647;28;20035;-53
2022/12/28 03:59:36;;;;;;;5.97;3.15;;;;;;;7.61;100.00;101296.22;5060761;28;20027;-54
2022/12/28 04:02:01;;;;;;;6.05;3.40;;;;;;;7.62;100.00;101303.97;5068306;28;20085;-54
2022/12/28 04:04:27;;;;;;;5.13;3.72;;;;;;;7.64;100.00;101296.34;5068172;28;20028;-54
2022/12/28 04:06:52;;;;;;;8.52;3.30;;;;;;;7.65;100.00;101287.88;5070276;28;20032;-52
2022/12/28 04:09:17;;;;;;;6.25;3.50;;;;;;;7.67;100.00;101292.25;5066262;28;20032;-53
2022/12/28 04:11:43;;;;;;;5.22;3.78;;;;;;;7.70;100.00;101287.25;5072183;28;20052;-53
2022/12/28 04:14:08;;;;;;;8.10;3.83;;;;;;;7.70;100.00;101283.84;5063248;28;20035;-54
2022/12/28 04:16:34;;;;;;;5.05;3.22;;;;;;;7.72;100.00;101285.69;5066867;28;20064;-53
2022/12/28 04:18:59;;;;;;;7.57;3.63;;;;;;;7.74;100.00;101283.19;5070480;28;20066;-54
2022/12/28 04:21:24;;;;;;;8.02;3.30;;;;;;;7.74;100.00;101278.06;5063231;28;20040;-54
2022/12/28 04:23:50;;;;;;;4.97;3.50;;;;;;;7.74;100.00;101281.50;5065981;28;20048;-53
2022/12/28 04:26:16;;;;;;;9.20;3.70;;;;;;;7.77;100.00;101281.66;5064301;28;20560;-54
2022/12/28 04:28:42;;;;;;;6.90;3.40;;;;;;;7.78;100.00;101285.97;5071886;28;20024;-53
2022/12/28 04:31:11;;;;;;;4.75;3.33;;;;;;;7.81;100.00;101277.53;5069713;28;20060;-54
2022/12/28 04:33:37;;;;;;;7.47;3.40;;;;;;;7.82;100.00;101284.41;5069869;28;20370;-54
2022/12/28 04:36:08;;;;;;;7.47;3.40;;;;;;;7.84;100.00;101275.13;5072135;28;20395;-54
2022/12/28 04:38:34;;;;;;;6.60;3.67;;;;;;;7.85;100.00;101279.44;5066258;28;20021;-48
2022/12/28 04:41:00;;;;;;;6.40;3.35;;;;;;;7.88;100.00;101276.13;5065010;28;20516;-54
2022/12/28 04:43:26;;;;;;;7.03;3.50;;;;;;;7.88;100.00;101286.34;5065506;28;20104;-53
2022/12/28 04:45:58;;;;;;;8.25;3.47;;;;;;;7.91;100.00;101273.72;5069364;28;20504;-52
2022/12/28 04:48:25;;;;;;;6.05;3.10;;;;;;;7.92;100.00;101280.59;5068761;28;20033;-51
2022/12/28 04:50:51;;;;;;;5.03;2.90;;;;;;;7.93;100.00;101274.66;5065866;28;20481;-53
2022/12/28 04:53:17;;;;;;;7.25;3.47;;;;;;;7.96;100.00;101280.78;5080724;28;20382;-54
2022/12/28 04:55:42;;;;;;;6.05;3.20;;;;;;;7.97;100.00;101279.13;5067523;28;20040;-54
2022/12/28 04:58:07;;;;;;;8.68;3.25;;;;;;;7.98;100.00;101271.50;5074171;28;20040;-54
2022/12/28 05:00:33;;;;;;;5.20;2.95;;;;;;;7.97;100.00;101267.19;5065961;28;20503;-54
2022/12/28 05:02:59;;;;;;;8.30;3.08;;;;;;;8.00;100.00;101262.19;5075301;28;20456;-53
2022/12/28 05:05:25;;;;;;;7.20;2.92;;;;;;;8.01;100.00;101271.66;5066695;28;20620;-54
2022/12/28 05:07:50;;;;;;;6.95;3.03;;;;;;;8.03;100.00;101251.22;5075058;28;20016;-54
2022/12/28 05:10:16;;;;;;;7.43;3.08;;;;;;;8.02;100.00;101249.47;5070977;28;20487;-51
2022/12/28 05:12:41;;;;;;;6.53;3.13;;;;;;;8.03;100.00;101251.22;5073698;28;20062;-54
2022/12/28 05:15:07;;;;;;;4.82;2.70;;;;;;;8.06;100.00;101254.78;5074567;28;20473;-53
2022/12/28 05:17:32;;;;;;;7.63;3.13;;;;;;;8.04;100.00;101258.97;5073270;28;20029;-54
2022/12/28 05:19:58;;;;;;;5.95;3.20;;;;;;;8.04;100.00;101263.22;5070229;28;20060;-50
2022/12/28 05:22:23;;;;;;;6.93;3.08;;;;;;;8.05;100.00;101259.84;5068006;28;20041;-48
2022/12/28 05:24:49;;;;;;;5.07;3.28;;;;;;;8.05;100.00;101260.69;5071473;28;20370;-54
2022/12/28 05:27:14;;;;;;;4.55;3.10;;;;;;;8.08;100.00;101260.00;5067617;28;20040;-54
2022/12/28 05:29:39;;;;;;;6.00;2.92;;;;;;;8.08;100.00;101254.88;5076564;28;20044;-52
2022/12/28 05:32:05;;;;;;;6.13;2.88;;;;;;;8.09;100.00;101265.97;5070755;28;20107;-52
2022/12/28 05:34:30;;;;;;;4.93;2.85;;;;;;;8.09;100.00;101260.84;5077353;28;20101;-54
2022/12/28 05:36:55;;;;;;;4.70;2.83;;;;;;;8.09;100.00;101261.72;5075510;28;20028;-54
2022/12/28 05:39:21;;;;;;;6.05;2.75;;;;;;;8.10;100.00;101263.47;5076535;28;20043;-54
2022/12/28 05:41:46;;;;;;;6.43;2.80;;;;;;;8.10;100.00;101252.34;5072583;28;20032;-54
2022/12/28 05:44:12;;;;;;;5.25;2.60;;;;;;;8.11;100.00;101251.53;5069921;28;20426;-54
2022/12/28 05:46:37;;;;;;;6.35;2.75;;;;;;;8.11;100.00;101254.97;5068289;28;20063;-54
2022/12/28 05:49:02;;;;;;;4.63;2.42;;;;;;;8.12;100.00;101251.59;5071503;28;20652;-54
2022/12/28 05:51:31;;;;;;;5.05;2.65;;;;;;;8.11;100.00;101241.31;5075467;28;20040;-54
2022/12/28 05:53:59;;;;;;;4.00;2.88;;;;;;;8.15;100.00;101248.31;5069254;28;20024;-54
2022/12/28 05:56:27;;;;;;;4.70;2.90;;;;;;;8.16;100.00;101238.13;5068679;28;20311;-53
2022/12/28 05:59:00;;;;;;;5.93;2.85;;;;;;;8.17;100.00;101234.75;5069651;28;20511;-54
2022/12/28 06:01:29;;;;;;;4.25;2.47;;;;;;;8.16;100.00;101233.00;5065340;28;20039;-49
2022/12/28 06:04:01;;;;;;;7.97;2.88;;;;;;;8.17;100.00;101228.75;5072461;28;20435;-51
2022/12/28 06:06:27;;;;;;;4.18;2.53;;;;;;;8.17;100.00;101228.75;5067697;28;20032;-54
2022/12/28 06:08:54;;;;;;;5.85;2.50;;;;;;;8.16;100.00;101224.44;5071306;28;20039;-54
2022/12/28 06:11:23;;;;;;;5.90;2.70;;;;;;;8.17;100.00;101213.38;5074390;28;20032;-53
2022/12/28 06:13:48;;;;;;;;;;;;;;;8.25;100.00;101212.03;5077630;28;20028;-54
2022/12/28 06:16:16;;;;;;;5.15;2.40;;;;;;;8.20;100.00;101209.28;5080946;28;19930;-54
2022/12/28 06:18:42;;;;;;;3.58;2.40;;;;;;;8.20;100.00;101213.53;5069474;28;20029;-52
2022/12/28 06:21:26;;;;;;;4.13;2.50;;;;;;;8.23;100.00;101205.97;5074767;28;20056;-54
2022/12/28 06:23:56;;;;;;;6.45;2.60;;;;;;;8.20;100.00;101209.28;5066348;28;20051;-54
2022/12/28 06:26:22;;;;;;;4.18;2.05;;;;;;;8.23;100.00;101214.53;5072166;28;20028;-54
2022/12/28 06:28:49;;;;;;;2.67;2.05;;;;;;;8.23;100.00;101208.53;5067406;28;20032;-54
2022/12/28 06:31:26;;;;;;;4.15;2.00;;;;;;;8.26;100.00;101217.25;5074614;28;20497;-54
2022/12/28 06:33:55;;;;;;;6.28;2.22;;;;;;;8.27;100.00;101201.06;5071017;28;20384;-54
2022/12/28 06:36:24;;;;;;;3.95;2.40;;;;;;;8.27;100.00;101203.63;5073954;28;20063;-53
2022/12/28 06:38:52;;;;;;;5.13;2.30;;;;;;;8.29;100.00;101211.34;5070709;28;20078;-55
2022/12/28 06:41:19;;;;;;;3.78;2.05;;;;;;;8.28;100.00;101209.59;5068337;28;20431;-54
2022/12/28 06:43:45;;;;;;;2.88;2.20;;;;;;;8.28;100.00;101201.94;5070334;28;20027;-54
2022/12/28 06:46:12;;;;;;;2.85;1.90;;;;;;;8.30;100.00;101197.72;5076846;28;20028;-53
2022/12/28 06:48:38;;;;;;;4.95;2.08;;;;;;;8.30;100.00;101192.59;5068966;28;20025;-54
2022/12/28 06:51:10;;;;;;;5.47;2.40;;;;;;;8.30;100.00;101200.28;5071367;28;20036;-54
2022/12/28 06:53:37;;;;;;;3.47;2.20;;;;;;;8.31;100.00;101202.94;5074749;28;20100;-50
2022/12/28 06:56:05;;;;;;;4.53;2.55;;;;;;;8.31;100.00;101192.69;5076719;28;20477;-52
2022/12/28 06:58:31;;;;;;;3.92;2.20;;;;;;;8.34;100.00;101190.25;5070278;28;20059;-54
2022/12/28 07:01:03;;;;;;;4.43;2.28;;;;;;;8.34;100.00;101191.94;5067388;28;20040;-54
2022/12/28 07:03:29;;;;;;;5.40;2.58;;;;;;;8.35;100.00;101188.56;5070589;28;20104;-54
2022/12/28 07:05:58;;;;;;;5.35;2.40;;;;;;;8.36;100.00;101190.34;5067140;28;20506;-54
2022/12/28 07:08:24;;;;;;;7.43;2.58;;;;;;;8.36;100.00;101187.78;5074230;28;20073;-54
2022/12/28 07:10:49;;;;;;;6.43;2.28;;;;;;;8.38;100.00;101186.16;5072829;28;20032;-45
2022/12/28 07:13:14;;;;;;;4.30;2.15;;;;;;;8.37;100.00;101183.53;5072561;28;20032;-54
2022/12/28 07:15:40;;;;;;;7.13;2.53;;;;;;;8.40;100.00;101183.66;5067059;28;20116;-53
2022/12/28 07:18:05;;;;;;;4.47;2.22;;;;;;;8.41;100.00;101193.97;5078212;28;20107;-53
2022/12/28 07:20:30;;;;;;;4.75;2.30;;;;;;;8.41;100.00;101185.41;5075951;28;20044;-54
2022/12/28 07:22:56;;;;;;;5.82;2.70;;;;;;;8.43;100.00;101191.47;5078142;28;20134;-54
2022/12/28 07:25:21;;;;;;;7.68;2.70;;;;;;;8.42;100.00;101188.03;5075689;28;20033;-54
2022/12/28 07:27:46;;;;;;;4.50;2.08;;;;;;;8.43;100.00;101186.34;5073001;28;20396;-54
2022/12/28 07:30:12;;;;;;;6.03;3.00;;;;;;;8.41;100.00;101183.72;5074898;28;20036;-53
2022/12/28 07:32:38;;;;;;;5.38;2.50;;;;;;;8.45;100.00;101190.75;5075181;28;20400;-54
2022/12/28 07:35:04;;;;;;;4.53;2.58;;;;;;;8.47;100.00;101190.78;5068344;28;20031;-51
2022/12/28 07:37:30;;;;;;;5.43;2.45;;;;;;;8.46;100.00;101189.03;5070704;28;20052;-52
2022/12/28 07:39:55;;;;;;;6.40;2.25;;;;;;;8.47;100.00;101177.97;5069812;28;20083;-54
2022/12/28 07:42:21;;;;;;;4.53;2.30;;;;;;;8.49;100.00;101182.38;5067201;28;20036;-53
2022/12/28 07:44:46;;;;;;;6.03;2.40;;;;;;;8.48;100.00;101183.16;5071943;28;20373;-49
2022/12/28 07:47:13;;;;;;;7.35;2.42;;;;;;;8.47;100.00;101189.09;5065976;28;20032;-52
2022/12/28 07:49:38;;;;;;;5.95;2.15;;;;;;;8.51;100.00;101197.81;5071646;28;20032;-54
2022/12/28 07:52:04;;;;;;;6.30;2.60;;;;;;;8.50;100.00;101189.25;5063707;28;20032;-54
2022/12/28 07:54:29;;;;;;;6.82;2.50;;;;;;;8.52;100.00;101191.88;5068385;28;20035;-54
2022/12/28 07:56:54;;;;;;;4.88;2.20;;;;;;;8.51;100.00;101191.00;5071518;28;20071;-54
2022/12/28 07:59:20;;;;;;;3.30;2.28;;;;;;;8.52;100.00;101186.75;5068254;28;20048;-54
2022/12/28 08:01:48;;;;;;;4.63;2.08;;;;;;;8.55;100.00;101189.41;5072256;28;20048;-54
2022/12/28 08:04:14;;;;;;;4.83;2.23;;;;;;;8.54;100.00;101192.78;5066358;28;20036;-54
2022/12/28 08:06:41;;;;;;;4.20;2.63;;;;;;;8.58;100.00;101197.25;5065987;28;20289;-49
2022/12/28 08:09:08;;;;;;;4.88;2.70;;;;;;;8.57;100.00;101200.63;5066244;28;20035;-51
2022/12/28 08:11:37;;;;;;;8.07;2.95;;;;;;;8.58;100.00;101197.25;5062930;28;20024;-54
2022/12/28 08:14:03;;;;;;;3.33;2.47;;;;;;;8.57;100.00;101187.81;5064278;28;20032;-54
2022/12/28 08:16:31;;;;;;;5.18;2.50;;;;;;;8.59;100.00;101192.16;5064450;28;20500;-51
2022/12/28 08:18:57;;;;;;;4.93;2.65;;;;;;;8.58;100.00;101185.28;5064410;28;20031;-52
2022/12/28 08:21:26;;;;;;;4.80;2.55;;;;;;;8.59;100.00;101187.03;5066408;28;20028;-48
2022/12/28 08:23:51;;;;;;;6.07;2.80;;;;;;;8.59;100.00;101181.91;5067972;28;20058;-45
2022/12/28 08:26:20;;;;;;;4.97;2.38;;;;;;;8.61;100.00;101176.84;5065401;28;20027;-50
2022/12/28 08:28:48;;;;;;;6.28;2.53;;;;;;;8.60;100.00;101175.97;5074138;28;20028;-49
2022/12/28 08:31:16;;;;;;;5.63;2.47;;;;;;;8.62;100.00;101180.31;5070533;28;20568;-49
2022/12/28 08:33:42;;;;;;;5.80;2.83;;;;;;;8.63;100.00;101180.38;5081320;28;20024;-52
2022/12/28 08:36:08;;;;;;;7.57;2.88;;;;;;;8.62;100.00;101176.06;5080923;28;20047;-52
2022/12/28 08:38:35;;;;;;;6.38;2.45;;;;;;;8.65;100.00;101175.28;5078744;28;20028;-52
2022/12/28 08:41:03;;;;;;;8.25;2.63;;;;;;;8.65;100.00;101170.16;5079230;28;20028;-52
2022/12/28 08:43:29;;;;;;;7.63;2.72;;;;;;;8.65;100.00;101171.03;5073767;28;20025;-53
2022/12/28 08:45:57;;;;;;;7.97;2.70;;;;;;;8.67;100.00;101169.41;5077034;28;20028;-52
2022/12/28 08:48:22;;;;;;;6.85;2.60;;;;;;;8.69;100.00;101169.50;5075098;28;20039;-52
2022/12/28 08:50:48;;;;;;;8.32;2.72;;;;;;;8.69;100.00;101165.25;5072599;28;20477;-51
2022/12/28 08:53:13;;;;;;;7.05;2.47;;;;;;;8.70;100.00;101174.66;5078141;28;20278;-47
2022/12/28 08:55:38;;;;;;;8.52;2.72;;;;;;;8.72;100.00;101173.03;5069478;28;20112;-51
2022/12/28 08:58:04;;;;;;;7.85;2.78;;;;;;;8.72;100.00;101167.91;5075036;28;20028;-52
2022/12/28 09:00:29;;;;;;;5.28;2.60;;;;;;;8.73;100.00;101166.22;5074301;28;20031;-52
2022/12/28 09:02:58;;;;;;;10.35;2.50;;;;;;;8.73;100.00;101161.09;5074886;28;20108;-52
2022/12/28 09:05:23;;;;;;;6.40;2.40;;;;;;;8.74;100.00;101174.00;5070324;28;20032;-49
2022/12/28 09:07:50;;;;;;;8.68;2.50;;;;;;;8.76;100.00;101168.91;5070431;28;20024;-52
2022/12/28 09:10:15;;;;;;;8.43;2.65;;;;;;;8.74;100.00;101158.59;5072065;28;20537;-52
2022/12/28 09:12:41;;;;;;;6.55;2.80;;;;;;;8.75;100.00;101162.03;5065245;28;20053;-52
2022/12/28 09:15:07;;;;;;;7.30;2.88;;;;;;;8.77;100.00;101168.09;5070638;28;20056;-46
2022/12/28 09:17:32;;;;;;;8.60;2.67;;;;;;;8.78;100.00;101172.41;5069129;28;20116;-53
2022/12/28 09:19:58;;;;;;;8.80;2.78;;;;;;;8.79;100.00;101167.34;5068270;28;20120;-52
2022/12/28 09:22:23;;;;;;;9.07;2.72;;;;;;;8.80;100.00;101184.50;5077753;28;20091;-52
2022/12/28 09:24:48;;;;;;;4.75;2.50;;;;;;;8.79;100.00;101177.59;5063458;28;20020;-49
2022/12/28 09:27:14;;;;;;;6.45;2.70;;;;;;;8.78;100.00;101180.09;5070655;28;20482;-50
2022/12/28 09:29:39;;;;;;;6.95;2.50;;;;;;;8.79;100.00;101181.84;5071642;28;20122;-49
2022/12/28 09:32:04;;;;;;;7.07;2.60;;;;;;;8.78;100.00;101175.84;5081736;28;20040;-48
2022/12/28 09:34:30;;;;;;;10.98;2.88;;;;;;;8.81;100.00;101169.97;5071455;28;20112;-52
2022/12/28 09:36:56;;;;;;;10.57;2.72;;;;;;;8.83;100.00;101173.47;5069634;28;20394;-49
2022/12/28 09:39:23;;;;;;;7.53;2.60;;;;;;;8.86;100.00;101171.03;5079934;28;20115;-51
2022/12/28 09:42:02;;;;;;;7.57;2.90;;;;;;;8.86;100.00;101173.63;5076699;28;20047;-52
2022/12/28 09:44:45;;;;;;;6.35;2.80;;;;;;;8.87;100.00;101165.09;5072750;28;20044;-52
2022/12/28 09:47:29;;;;;;;5.55;2.78;;;;;;;8.89;100.00;101178.84;5057803;28;20020;-46
2022/12/28 09:50:24;;;;;;;6.28;2.60;;;;;;;8.85;100.00;101159.88;5073663;28;20484;-52
2022/12/28 09:53:21;;;;;;;9.60;2.65;;;;;;;8.86;100.00;101160.78;5077997;28;20024;-50
2022/12/28 09:56:10;;;;;;;4.63;2.25;;;;;;;8.86;100.00;101173.63;5067591;28;20035;-48
2022/12/28 09:58:39;;;;;;;4.82;2.15;;;;;;;8.88;100.00;101161.72;5069612;28;20078;-52
2022/12/28 10:01:11;;;;;;;7.65;2.30;;;;;;;8.91;100.00;101168.63;5070495;28;20468;-49
2022/12/28 10:03:39;;;;;;;5.43;2.20;;;;;;;8.89;100.00;101160.91;5073887;28;20048;-52
2022/12/28 10:06:11;;;;;;;5.30;2.10;;;;;;;8.91;100.00;101177.22;5067696;28;20118;-48
2022/12/28 10:08:45;;;;;;;4.03;1.90;;;;;;;8.91;100.00;101160.94;5071706;28;20461;-53
2022/12/28 10:11:16;;;;;;;4.10;1.80;;;;;;;8.93;100.00;101170.47;5061653;28;20439;-51
2022/12/28 10:13:42;;;;;;;5.03;1.70;;;;;;;8.93;100.00;101160.22;5073661;28;20492;-52
2022/12/28 10:16:15;;;;;;;4.80;1.85;;;;;;;8.96;100.00;101156.88;5070692;28;20044;-52
2022/12/28 10:18:41;;;;;;;3.72;1.70;;;;;;;8.95;100.00;101153.44;5068030;28;20028;-53
2022/12/28 10:21:06;;;;;;;3.08;1.80;;;;;;;8.95;100.00;101150.88;5073243;28;20132;-51
2022/12/28 10:23:34;;;;;;;4.13;1.83;;;;;;;8.97;100.00;101149.25;5073696;28;20056;-53
2022/12/28 10:26:01;;;;;;;5.88;1.70;;;;;;;8.97;100.00;101150.94;5072409;28;20031;-48
2022/12/28 10:28:40;;;;;;;4.15;1.67;;;;;;;8.99;100.00;101145.06;5061496;28;20044;-52
2022/12/28 10:31:09;;;;;;;2.20;1.48;;;;;;;9.00;100.00;101154.50;5070280;28;20119;-48
2022/12/28 10:33:39;;;;;;;2.38;1.63;;;;;;;8.99;100.00;101151.88;5067888;28;20097;-52
2022/12/28 10:36:09;;;;;;;2.90;1.60;;;;;;;8.97;100.00;101135.53;5076350;28;20063;-47
2022/12/28 10:38:35;;;;;;;2.28;1.40;;;;;;;8.99;100.00;101136.50;5076142;28;20021;-50
2022/12/28 10:41:10;;;;;;;1.70;1.30;;;;;;;9.00;100.00;101141.69;5077402;28;20028;-51
2022/12/28 10:43:39;;;;;;;2.80;1.67;;;;;;;9.00;100.00;101141.69;5061150;28;20526;-52
2022/12/28 10:46:16;;;;;;;4.00;1.60;;;;;;;9.02;100.00;101134.03;5073765;28;20043;-51
2022/12/28 10:48:52;;;;;;;2.50;1.60;;;;;;;8.99;100.00;101147.63;5064050;28;20528;-52
2022/12/28 10:51:23;;;;;;;2.70;1.40;;;;;;;9.01;100.00;101143.41;5072730;28;20024;-51
2022/12/28 10:53:54;;;;;;;3.00;1.50;;;;;;;9.02;100.00;101140.03;5067732;28;20110;-53
2022/12/28 10:56:25;;;;;;;3.10;1.50;;;;;;;9.01;100.00;101127.16;5066597;28;20465;-43
2022/12/28 10:58:53;;;;;;;3.05;1.90;;;;;;;9.02;100.00;101129.78;5069601;28;20099;-52
2022/12/28 11:01:25;;;;;;;2.55;1.60;;;;;;;9.02;100.00;101134.91;5073275;28;20425;-52
2022/12/28 11:04:19;;;;;;;2.55;1.70;;;;;;;9.03;100.00;101125.50;5064775;28;20067;-52
2022/12/28 11:06:55;;;;;;;3.67;1.60;;;;;;;9.04;100.00;101128.16;5075057;28;20445;-51
2022/12/28 11:09:21;;;;;;;3.58;1.55;;;;;;;9.03;100.00;101128.94;5070214;28;20029;-52
2022/12/28 11:11:49;;;;;;;2.95;1.40;;;;;;;9.04;100.00;101122.13;5067819;28;20025;-52
2022/12/28 11:14:30;;;;;;;3.03;1.90;;;;;;;9.06;100.00;101111.13;5060848;28;20419;-51
2022/12/28 11:16:56;;;;;;;4.38;1.75;;;;;;;9.07;100.00;101105.19;5067123;28;20039;-52
2022/12/28 11:19:24;;;;;;;3.95;1.90;;;;;;;9.06;100.00;101107.69;5056665;28;20361;-50
2022/12/28 11:21:50;;;;;;;4.03;1.80;;;;;;;9.06;100.00;101116.25;5067089;28;20119;-51
2022/12/28 11:24:17;;;;;;;3.75;1.80;;;;;;;9.06;100.00;101100.88;5068462;28;20071;-52
2022/12/28 11:26:46;;;;;;;3.97;2.00;;;;;;;9.08;100.00;101088.97;5059681;28;20111;-52
2022/12/28 11:29:15;;;;;;;4.18;2.10;;;;;;;9.09;100.00;101094.97;5064544;28;20017;-50
2022/12/28 11:31:57;;;;;;;6.20;2.17;;;;;;;9.12;100.00;101090.84;5075821;28;20099;-50
2022/12/28 11:34:26;;;;;;;4.38;1.90;;;;;;;9.12;100.00;101090.84;5071231;28;20566;-52
2022/12/28 11:36:52;;;;;;;3.13;1.73;;;;;;;9.12;100.00;101075.44;5077243;28;20024;-48
2022/12/28 11:39:26;;;;;;;3.13;1.90;;;;;;;9.15;100.00;101079.81;5079535;28;20038;-52
2022/12/28 11:41:55;;;;;;;4.93;2.00;;;;;;;9.14;100.00;101075.50;5075614;28;20507;-47
2022/12/28 11:44:41;;;;;;;;;;;;;;;9.23;100.00;101078.41;5065095;28;20528;-50
2022/12/28 11:47:29;;;;;;;6.47;2.30;;;;;;;9.18;100.00;101076.50;5053590;28;19990;-52
2022/12/28 11:50:33;;;;;;;5.82;1.88;;;;;;;9.19;100.00;101071.41;5061556;28;20072;-52
2022/12/28 11:53:00;;;;;;;5.95;2.05;;;;;;;9.16;100.00;101068.75;5075017;28;20028;-53
2022/12/28 11:55:55;;;;;;;4.57;2.05;;;;;;;9.19;100.00;101068.84;5064953;28;20401;-51
2022/12/28 11:58:29;;;;;;;6.63;2.10;;;;;;;9.19;100.00;101063.72;5069766;28;20028;-53
2022/12/28 12:00:58;;;;;;;4.72;2.08;;;;;;;9.17;100.00;101051.66;5059975;28;20079;-52